PWSweather.com
Personal Weather Stations
Station Observations
OBERT
Bodensee Hinterland, OberteuringenDE

Bodensee HinterlandOberteuringenDE

Lat: 47.714675, Lon: 9.44447

Elevation: 1427

Station Type: Wunder Weather Station

High Low Average
Temperature 57.5°F14.2°C 45.6°F7.6°C 51.0°F10.6°C
Dew Point 51.8°F11.0°C 45.6°F7.6°C 48.7°F9.3°C
Winds 18.6 mph 29.9 kmh Calm Calm 3.0 mph N4.8 kmh N
Wind Gusts 25.6 mph41.2 kmh -- 7.0 mph11.3 kmh
Humidity 100% 78% 92%
Pressure 29.52 in999.7 mb 29.37 in994.6 mb -
Precipitation 0.00 in0.0 mm - -
Hour Temp Dew Point Humidity Winds Wind Gusts Pressure Precip Precip Rate Daily Precip Total
12:15 AM 48.9°F9.4°C 48.3°F9.1°C 97% 6.2 mph 10.0 kmh 15.0 mph24.1 kmh 29.43 in996.6 mb 0.00 in0.0 mm 0.00 in0.0 mm 0.00 in0.0 mm
12:45 AM 49.1°F9.5°C 47.5°F8.6°C 94% 7.1 mph 11.4 kmh 17.1 mph27.5 kmh 29.43 in996.6 mb 0.00 in0.0 mm 0.00 in0.0 mm 0.00 in0.0 mm
01:15 AM 48.7°F9.3°C 47.5°F8.6°C 95% 3.7 mph N6.0 kmh N 8.7 mph14.0 kmh 29.44 in997.0 mb 0.00 in0.0 mm 0.00 in0.0 mm 0.00 in0.0 mm
01:45 AM 49.2°F9.6°C 47.3°F8.5°C 93% 4.2 mph 6.8 kmh 10.0 mph16.1 kmh 29.44 in997.0 mb 0.00 in0.0 mm 0.00 in0.0 mm 0.00 in0.0 mm
02:15 AM 49.4°F9.7°C 47.2°F8.4°C 92% 5.7 mph N9.2 kmh N 12.5 mph20.1 kmh 29.44 in997.0 mb 0.00 in0.0 mm 0.00 in0.0 mm 0.00 in0.0 mm
02:45 AM 48.9°F9.4°C 47.3°F8.5°C 94% 3.8 mph 6.1 kmh 7.1 mph11.4 kmh 29.44 in997.0 mb 0.00 in0.0 mm 0.00 in0.0 mm 0.00 in0.0 mm
02:57 AM 48.5°F9.2°C 47.5°F8.6°C 96% 2.7 mph 4.3 kmh 7.1 mph11.4 kmh 29.44 in997.0 mb 0.00 in0.0 mm 0.00 in0.0 mm 0.00 in0.0 mm
03:27 AM 47.6°F8.7°C 47.6°F8.7°C 100% Calm Calm -- 29.44 in997.0 mb 0.00 in0.0 mm 0.00 in0.0 mm 0.00 in0.0 mm
03:57 AM 48.2°F9.0°C 47.8°F8.8°C 98% Calm Calm 3.4 mph5.5 kmh 29.44 in997.0 mb 0.00 in0.0 mm 0.00 in0.0 mm 0.00 in0.0 mm
04:27 AM 47.6°F8.7°C 47.2°F8.4°C 98% Calm Calm 2.8 mph4.5 kmh 29.44 in997.0 mb 0.00 in0.0 mm 0.00 in0.0 mm 0.00 in0.0 mm
04:57 AM 48.5°F9.2°C 47.0°F8.3°C 94% 3.4 mph 5.5 kmh 9.0 mph14.5 kmh 29.44 in997.0 mb 0.00 in0.0 mm 0.00 in0.0 mm 0.00 in0.0 mm
05:27 AM 47.1°F8.4°C 46.3°F7.9°C 96% Calm Calm -- 29.43 in996.6 mb 0.00 in0.0 mm 0.00 in0.0 mm 0.00 in0.0 mm
05:57 AM 46.7°F8.2°C 46.7°F8.2°C 100% Calm Calm -- 29.43 in996.6 mb 0.00 in0.0 mm 0.00 in0.0 mm 0.00 in0.0 mm
06:27 AM 48.0°F8.9°C 47.7°F8.7°C 98% 2.1 mph 3.4 kmh 4.3 mph6.9 kmh 29.43 in996.6 mb 0.00 in0.0 mm 0.00 in0.0 mm 0.00 in0.0 mm
06:57 AM 48.5°F9.2°C 47.4°F8.6°C 95% 2.7 mph N4.3 kmh N 6.8 mph10.9 kmh 29.44 in997.0 mb 0.00 in0.0 mm 0.00 in0.0 mm 0.00 in0.0 mm
07:27 AM 49.1°F9.5°C 46.6°F8.1°C 91% 8.9 mph N14.3 kmh N 17.5 mph28.2 kmh 29.43 in996.6 mb 0.00 in0.0 mm 0.00 in0.0 mm 0.00 in0.0 mm
07:57 AM 49.6°F9.8°C 46.6°F8.1°C 89% 6.6 mph 10.6 kmh 12.1 mph19.5 kmh 29.43 in996.6 mb 0.00 in0.0 mm 0.00 in0.0 mm 0.00 in0.0 mm
08:27 AM 50.9°F10.5°C 47.4°F8.6°C 88% 3.0 mph N4.8 kmh N 9.0 mph14.5 kmh 29.42 in996.3 mb 0.00 in0.0 mm 0.00 in0.0 mm 0.00 in0.0 mm
08:57 AM 52.3°F11.3°C 47.9°F8.8°C 85% 5.3 mph 8.5 kmh 7.5 mph12.1 kmh 29.41 in995.9 mb 0.00 in0.0 mm 0.00 in0.0 mm 0.00 in0.0 mm
09:27 AM 52.3°F11.3°C 48.2°F9.0°C 85% 2.7 mph N4.3 kmh N 5.6 mph9.0 kmh 29.42 in996.3 mb 0.00 in0.0 mm 0.00 in0.0 mm 0.00 in0.0 mm
09:57 AM 52.5°F11.4°C 48.5°F9.2°C 86% Calm Calm 4.6 mph7.4 kmh 29.41 in995.9 mb 0.00 in0.0 mm 0.00 in0.0 mm 0.00 in0.0 mm
10:27 AM 53.9°F12.2°C 48.1°F8.9°C 80% 0.3 mph N0.5 kmh N -- 29.40 in995.6 mb 0.00 in0.0 mm 0.00 in0.0 mm 0.00 in0.0 mm
10:57 AM 54.8°F12.7°C 49.4°F9.7°C 81% 3.1 mph 5.0 kmh 6.5 mph10.5 kmh 29.39 in995.3 mb 0.00 in0.0 mm 0.00 in0.0 mm 0.00 in0.0 mm
11:27 AM 54.3°F12.4°C 49.4°F9.7°C 83% 0.1 mph N0.2 kmh N 8.1 mph13.0 kmh 29.37 in994.6 mb 0.00 in0.0 mm 0.00 in0.0 mm 0.00 in0.0 mm
11:57 AM 55.5°F13.1°C 49.4°F9.7°C 79% Calm Calm 3.7 mph6.0 kmh 29.37 in994.6 mb 0.00 in0.0 mm 0.00 in0.0 mm 0.00 in0.0 mm
12:27 PM 56.6°F13.7°C 50.3°F10.2°C 79% Calm Calm 5.3 mph8.5 kmh 29.37 in994.6 mb 0.00 in0.0 mm 0.00 in0.0 mm 0.00 in0.0 mm
12:57 PM 57.5°F14.2°C 50.8°F10.4°C 78% Calm Calm 5.9 mph9.5 kmh 29.37 in994.6 mb 0.00 in0.0 mm 0.00 in0.0 mm 0.00 in0.0 mm
01:27 PM 56.3°F13.5°C 49.8°F9.9°C 79% Calm Calm -- 29.38 in994.9 mb 0.00 in0.0 mm 0.00 in0.0 mm 0.00 in0.0 mm
01:57 PM 55.9°F13.3°C 50.1°F10.1°C 80% 0.7 mph N1.1 kmh N 4.0 mph6.4 kmh 29.38 in994.9 mb 0.00 in0.0 mm 0.00 in0.0 mm 0.00 in0.0 mm
02:27 PM 55.2°F12.9°C 50.1°F10.1°C 83% 0.9 mph N1.4 kmh N 3.1 mph5.0 kmh 29.38 in994.9 mb 0.00 in0.0 mm 0.00 in0.0 mm 0.00 in0.0 mm
02:57 PM 55.2°F12.9°C 51.0°F10.6°C 85% Calm Calm -- 29.40 in995.6 mb 0.00 in0.0 mm 0.00 in0.0 mm 0.00 in0.0 mm
03:27 PM 55.9°F13.3°C 51.3°F10.7°C 84% Calm Calm -- 29.39 in995.3 mb 0.00 in0.0 mm 0.00 in0.0 mm 0.00 in0.0 mm
03:57 PM 56.3°F13.5°C 51.8°F11.0°C 85% 1.5 mph N2.4 kmh N 4.3 mph6.9 kmh 29.39 in995.3 mb 0.00 in0.0 mm 0.00 in0.0 mm 0.00 in0.0 mm
04:27 PM 55.5°F13.1°C 51.1°F10.6°C 85% 2.9 mph 4.7 kmh 6.2 mph10.0 kmh 29.40 in995.6 mb 0.00 in0.0 mm 0.00 in0.0 mm 0.00 in0.0 mm
04:57 PM 54.1°F12.3°C 50.2°F10.1°C 86% 18.6 mph 29.9 kmh 25.6 mph41.2 kmh 29.44 in997.0 mb 0.00 in0.0 mm 0.00 in0.0 mm 0.00 in0.0 mm
05:27 PM 52.3°F11.3°C 50.4°F10.2°C 93% 5.5 mph N8.9 kmh N 14.6 mph23.5 kmh 29.45 in997.3 mb 0.00 in0.0 mm 0.00 in0.0 mm 0.00 in0.0 mm
05:57 PM 51.0°F10.6°C 50.1°F10.1°C 96% Calm Calm 5.6 mph9.0 kmh 29.45 in997.3 mb 0.00 in0.0 mm 0.00 in0.0 mm 0.00 in0.0 mm
06:27 PM 49.1°F9.5°C 49.1°F9.5°C 100% Calm Calm 3.1 mph5.0 kmh 29.45 in997.3 mb 0.00 in0.0 mm 0.00 in0.0 mm 0.00 in0.0 mm
06:57 PM 46.9°F8.3°C 46.9°F8.3°C 100% Calm Calm -- 29.45 in997.3 mb 0.00 in0.0 mm 0.00 in0.0 mm 0.00 in0.0 mm
07:27 PM 45.6°F7.6°C 45.6°F7.6°C 100% 1.9 mph 3.1 kmh 5.3 mph8.5 kmh 29.47 in998.0 mb 0.00 in0.0 mm 0.00 in0.0 mm 0.00 in0.0 mm
07:57 PM 47.6°F8.7°C 47.6°F8.7°C 100% Calm Calm -- 29.47 in998.0 mb 0.00 in0.0 mm 0.00 in0.0 mm 0.00 in0.0 mm
08:27 PM 50.9°F10.5°C 50.9°F10.5°C 100% 4.9 mph N7.9 kmh N 10.9 mph17.5 kmh 29.47 in998.0 mb 0.00 in0.0 mm 0.00 in0.0 mm 0.00 in0.0 mm
08:57 PM 50.9°F10.5°C 50.9°F10.5°C 100% 3.1 mph 5.0 kmh 8.1 mph13.0 kmh 29.46 in997.6 mb 0.00 in0.0 mm 0.00 in0.0 mm 0.00 in0.0 mm
09:09 PM 51.2°F10.7°C 51.2°F10.7°C 100% 0.2 mph N0.3 kmh N 6.5 mph10.5 kmh 29.47 in998.0 mb 0.00 in0.0 mm 0.00 in0.0 mm 0.00 in0.0 mm
09:39 PM 51.6°F10.9°C 51.6°F10.9°C 100% 2.1 mph 3.4 kmh 9.3 mph15.0 kmh 29.49 in998.6 mb 0.00 in0.0 mm 0.00 in0.0 mm 0.00 in0.0 mm
10:09 PM 51.2°F10.7°C 51.2°F10.7°C 100% 6.8 mph 10.9 kmh 10.9 mph17.5 kmh 29.49 in998.6 mb 0.00 in0.0 mm 0.00 in0.0 mm 0.00 in0.0 mm
10:39 PM 49.2°F9.6°C 49.2°F9.6°C 100% 7.8 mph N12.6 kmh N 19.3 mph31.1 kmh 29.52 in999.7 mb 0.00 in0.0 mm 0.00 in0.0 mm 0.00 in0.0 mm
11:09 PM 47.3°F8.5°C 47.3°F8.5°C 100% 4.1 mph N6.6 kmh N 12.5 mph20.1 kmh 29.51 in999.3 mb 0.00 in0.0 mm 0.00 in0.0 mm 0.00 in0.0 mm
11:39 PM 47.3°F8.5°C 47.3°F8.5°C 100% Calm Calm 4.0 mph6.4 kmh 29.51 in999.3 mb 0.00 in0.0 mm 0.00 in0.0 mm 0.00 in0.0 mm